Time;durP1;ratioP1;P1;durP2;ratioP2;P2;SDS_P1;SDS_P2;PMS_P1;PMS_P2;Temp;Humidity;BMP_temperature;BMP_pressure;BME280_temperature;BME280_humidity;BME280_pressure;Samples;Min_cycle;Max_cycle;Signal;HPM_P1;HPM_P2
2023/06/21 00:01:38;;;;;;;;;;;;;;;18.36;92.67;101126.69;5109706;28;19919;-78
2023/06/21 00:04:07;;;;;;;;;;;;;;;18.34;90.98;101131.25;5111890;28;19955;-77
2023/06/21 00:06:34;;;;;;;;;;;;;;;18.31;93.83;101134.09;5113001;28;20389;-78
2023/06/21 00:09:00;;;;;;;;;;;;;;;18.29;92.33;101135.09;5112819;28;19938;-78
2023/06/21 00:11:25;;;;;;;;;;;;;;;18.29;91.69;101141.34;5093948;28;19919;-77
2023/06/21 00:13:54;;;;;;;;;;;;;;;18.30;94.62;101132.38;5096001;28;19945;-78
2023/06/21 00:16:20;;;;;;;;;;;;;;;18.29;93.25;101141.34;5110927;28;20375;-78
2023/06/21 00:18:45;;;;;;;;;;;;;;;18.26;94.88;101150.41;5112319;28;19991;-78
2023/06/21 00:21:17;;;;;;;;;;;;;;;18.25;94.48;101153.16;5103129;28;19928;-78
2023/06/21 00:23:43;;;;;;;;;;;;;;;18.26;95.13;101157.56;5112045;28;19916;-78
2023/06/21 00:26:08;;;;;;;;;;;;;;;18.25;94.95;101162.06;5109902;28;19972;-77
2023/06/21 00:28:37;;;;;;;;;;;;;;;18.25;98.47;101163.91;5110292;28;19998;-78
2023/06/21 00:31:03;;;;;;;;;;;;;;;18.21;93.43;101164.97;5093113;28;20037;-78
2023/06/21 00:33:28;;;;;;;;;;;;;;;18.18;91.18;101160.63;5093003;28;19990;-78
2023/06/21 00:35:54;;;;;;;;;;;;;;;18.16;92.81;101161.66;5092940;28;19930;-78
2023/06/21 00:38:20;;;;;;;;;;;;;;;18.16;94.52;101158.97;5091304;28;20414;-78
2023/06/21 00:40:49;;;;;;;;;;;;;;;18.17;90.79;101158.88;5089607;28;20313;-78
2023/06/21 00:43:16;;;;;;;;;;;;;;;18.20;97.83;101161.44;5108005;28;19916;-78
2023/06/21 00:45:48;;;;;;;;;;;;;;;18.17;97.54;101163.38;5092505;28;20136;-78
2023/06/21 00:48:13;;;;;;;;;;;;;;;18.19;97.59;101172.22;5109587;28;19919;-78
2023/06/21 00:50:39;;;;;;;;;;;;;;;18.17;97.02;101177.63;5109570;28;20343;-78
2023/06/21 00:53:04;;;;;;;;;;;;;;;18.19;98.91;101170.41;5109510;28;19949;-77
2023/06/21 00:55:30;;;;;;;;;;;;;;;18.16;99.25;101170.56;5109442;28;20302;-78
2023/06/21 00:57:57;;;;;;;;;;;;;;;18.15;99.68;101175.97;5109591;28;19969;-78
2023/06/21 01:00:23;;;;;;;;;;;;;;;18.15;96.70;101171.50;5109160;28;19920;-77
2023/06/21 01:02:50;;;;;;;;;;;;;;;18.16;99.51;101169.69;5109409;28;19946;-78
2023/06/21 01:05:18;;;;;;;;;;;;;;;18.17;98.28;101180.31;5109340;28;20488;-78
2023/06/21 01:07:45;;;;;;;;;;;;;;;18.18;98.87;101181.22;5111158;28;19931;-77
2023/06/21 01:10:19;;;;;;;;;;;;;;;18.12;98.16;101179.69;5098053;28;19965;-77
2023/06/21 01:12:50;;;;;;;;;;;;;;;18.10;99.68;101186.06;5108550;28;20311;-77
2023/06/21 01:15:19;;;;;;;;;;;;;;;18.09;99.47;101178.97;5094241;28;19927;-78
2023/06/21 01:17:48;;;;;;;;;;;;;;;18.08;98.69;101188.81;5096694;28;20008;-77
2023/06/21 01:20:22;;;;;;;;;;;;;;;18.08;96.56;101187.97;5112661;28;20363;-78
2023/06/21 01:22:47;;;;;;;;;;;;;;;18.12;99.67;101182.34;5103802;28;20517;-78
2023/06/21 01:25:31;;;;;;;;;;;;;;;18.14;96.68;101182.28;5113419;28;20007;-78
2023/06/21 01:28:16;;;;;;;;;;;;;;;18.09;97.22;101187.88;5110813;28;20294;-77
2023/06/21 01:30:42;;;;;;;;;;;;;;;18.03;96.36;101183.69;5101538;28;19916;-78
2023/06/21 01:33:08;;;;;;;;;;;;;;;18.05;96.37;101183.59;5113259;28;19915;-77
2023/06/21 01:35:34;;;;;;;;;;;;;;;18.06;97.74;101188.03;5113243;28;20026;-78
2023/06/21 01:38:01;;;;;;;;;;;;;;;18.03;94.50;101189.03;5114271;27;19920;-77
2023/06/21 01:40:26;;;;;;;;;;;;;;;18.04;98.97;101185.41;5114813;28;19996;-78
2023/06/21 01:42:52;;;;;;;;;;;;;;;18.07;97.34;101191.56;5130190;27;19916;-78
2023/06/21 01:45:23;;;;;;;;;;;;;;;18.07;97.34;101192.44;5123857;27;20053;-77
2023/06/21 01:47:49;;;;;;;;;;;;;;;18.04;96.18;101193.44;5096118;28;19915;-78
2023/06/21 01:50:17;;;;;;;;;;;;;;;18.01;96.77;101201.63;5096211;28;20014;-78
2023/06/21 01:52:44;;;;;;;;;;;;;;;18.01;97.85;101190.06;5092805;28;20010;-78
2023/06/21 01:55:11;;;;;;;;;;;;;;;17.98;96.37;101195.56;5113448;28;19927;-77
2023/06/21 01:57:37;;;;;;;;;;;;;;;17.96;95.53;101189.41;5130355;27;20333;-78
2023/06/21 02:00:13;;;;;;;;;;;;;;;17.97;92.92;101196.50;5130175;27;19916;-78
2023/06/21 02:02:42;;;;;;;;;;;;;;;17.97;94.57;101204.53;5114555;28;19915;-78
2023/06/21 02:05:09;;;;;;;;;;;;;;;17.94;94.35;101199.31;5112896;28;19916;-78
2023/06/21 02:07:35;;;;;;;;;;;;;;;17.89;94.14;101198.66;5113017;28;19919;-78
2023/06/21 02:10:01;;;;;;;;;;;;;;;17.86;94.24;101214.91;5113032;28;20377;-78
2023/06/21 02:12:33;;;;;;;;;;;;;;;17.87;95.12;101220.16;5112946;28;19916;-78
2023/06/21 02:14:59;;;;;;;;;;;;;;;17.87;94.64;101219.28;5095708;28;19923;-77
2023/06/21 02:17:24;;;;;;;;;;;;;;;17.86;94.92;101217.56;5095926;28;19986;-77
2023/06/21 02:19:51;;;;;;;;;;;;;;;17.79;95.12;101204.41;5110850;28;19936;-78
2023/06/21 02:22:18;;;;;;;;;;;;;;;17.80;94.85;101211.56;5095117;28;20364;-77
2023/06/21 02:24:43;;;;;;;;;;;;;;;17.79;94.64;101223.16;5112746;28;19928;-77
2023/06/21 02:27:09;;;;;;;;;;;;;;;17.78;93.60;101226.78;5115773;27;19919;-78
2023/06/21 02:29:34;;;;;;;;;;;;;;;17.74;93.73;101218.97;5095615;28;20365;-77
2023/06/21 02:32:00;;;;;;;;;;;;;;;17.70;93.94;101228.06;5081384;28;19920;-78
2023/06/21 02:34:25;;;;;;;;;;;;;;;17.68;95.07;101228.16;5095652;28;19915;-77
2023/06/21 02:36:53;;;;;;;;;;;;;;;17.67;94.43;101236.25;5114171;28;19923;-78
2023/06/21 02:39:20;;;;;;;;;;;;;;;17.68;94.72;101244.22;5117543;27;19926;-77
2023/06/21 02:41:46;;;;;;;;;;;;;;;17.69;95.24;101240.59;5112651;28;19992;-78
2023/06/21 02:44:12;;;;;;;;;;;;;;;17.68;94.84;101238.88;5078703;28;19920;-77
2023/06/21 02:46:37;;;;;;;;;;;;;;;17.66;94.82;101248.78;5114339;28;20014;-78
2023/06/21 02:49:02;;;;;;;;;;;;;;;17.69;94.33;101251.31;5113380;28;20284;-78
2023/06/21 02:51:28;;;;;;;;;;;;;;;17.75;94.88;101250.16;5112603;28;19977;-78
2023/06/21 02:53:53;;;;;;;;;;;;;;;17.74;93.80;101256.47;5112718;28;19931;-77
2023/06/21 02:56:18;;;;;;;;;;;;;;;17.69;94.29;101243.28;5095599;28;19941;-77
2023/06/21 02:58:44;;;;;;;;;;;;;;;17.69;94.58;101258.47;5129161;27;20022;-78
2023/06/21 03:01:09;;;;;;;;;;;;;;;17.66;95.61;101255.94;5129026;27;19957;-77
2023/06/21 03:03:40;;;;;;;;;;;;;;;17.64;94.57;101264.03;5124166;27;20327;-78
2023/06/21 03:06:06;;;;;;;;;;;;;;;17.63;95.42;101273.88;5111835;28;19920;-78
2023/06/21 03:08:31;;;;;;;;;;;;;;;17.61;95.77;101266.88;5111915;28;19934;-78
2023/06/21 03:10:57;;;;;;;;;;;;;;;17.63;95.18;101279.25;5111975;28;20382;-78
2023/06/21 03:13:23;;;;;;;;;;;;;;;17.62;93.04;101273.94;5094858;28;19954;-78
2023/06/21 03:15:49;;;;;;;;;;;;;;;17.61;95.17;101282.94;5111565;28;20294;-78
2023/06/21 03:18:15;;;;;;;;;;;;;;;17.59;94.81;101296.38;5111827;28;20054;-78
2023/06/21 03:20:42;;;;;;;;;;;;;;;17.60;95.04;101300.78;5101839;28;20011;-77
2023/06/21 03:23:08;;;;;;;;;;;;;;;17.60;95.38;101298.09;5111789;28;19916;-77
2023/06/21 03:25:34;;;;;;;;;;;;;;;17.61;95.58;101301.69;5111379;28;20014;-78
2023/06/21 03:28:00;;;;;;;;;;;;;;;17.61;94.67;101299.88;5111656;28;19927;-78
2023/06/21 03:30:26;;;;;;;;;;;;;;;17.62;94.19;101314.97;5111108;28;19960;-77
2023/06/21 03:32:52;;;;;;;;;;;;;;;17.66;94.61;101313.06;5111089;28;20003;-78
2023/06/21 03:35:18;;;;;;;;;;;;;;;17.67;96.00;101306.75;5111233;28;19916;-78
2023/06/21 03:37:48;;;;;;;;;;;;;;;17.68;95.35;101294.22;5110743;28;19920;-77
2023/06/21 03:40:18;;;;;;;;;;;;;;;17.68;94.62;101294.22;5095250;28;19923;-78
2023/06/21 03:42:44;;;;;;;;;;;;;;;17.70;94.78;101301.25;5110648;28;19943;-78
2023/06/21 03:45:10;;;;;;;;;;;;;;;17.71;94.82;101310.19;5128180;27;19920;-78
2023/06/21 03:47:38;;;;;;;;;;;;;;;17.70;95.28;101303.94;5111076;28;19973;-77
2023/06/21 03:50:04;;;;;;;;;;;;;;;17.71;96.85;101308.38;5110874;28;20055;-78
2023/06/21 03:52:31;;;;;;;;;;;;;;;17.71;97.08;101300.31;5077871;28;19960;-77
2023/06/21 03:54:57;;;;;;;;;;;;;;;17.71;95.56;101316.41;5128277;27;20341;-77
2023/06/21 03:57:22;;;;;;;;;;;;;;;17.75;96.18;101309.94;5128128;27;20257;-78
2023/06/21 03:59:48;;;;;;;;;;;;;;;17.82;95.32;101307.91;5110601;28;19923;-78
2023/06/21 04:02:17;;;;;;;;;;;;;;;17.86;95.78;101314.03;5110876;28;19937;-77
2023/06/21 04:04:43;;;;;;;;;;;;;;;17.89;95.59;101319.22;5110480;28;19919;-77
2023/06/21 04:07:08;;;;;;;;;;;;;;;17.90;95.84;101319.16;5112415;28;19926;-78
2023/06/21 04:09:34;;;;;;;;;;;;;;;17.94;95.88;101325.25;5110137;28;20322;-77
2023/06/21 04:12:02;;;;;;;;;;;;;;;17.97;98.52;101325.97;5110898;28;20003;-78
2023/06/21 04:14:27;;;;;;;;;;;;;;;18.03;96.67;101331.06;5127709;27;20022;-77
2023/06/21 04:16:53;;;;;;;;;;;;;;;18.08;96.58;101328.19;5110667;28;19927;-78
2023/06/21 04:19:18;;;;;;;;;;;;;;;18.15;96.52;101329.66;5108734;28;19996;-77
2023/06/21 04:21:44;;;;;;;;;;;;;;;18.19;96.60;101328.56;5111714;28;19946;-78
2023/06/21 04:24:10;;;;;;;;;;;;;;;18.21;91.92;101340.06;5127537;27;19972;-78
2023/06/21 04:26:35;;;;;;;;;;;;;;;18.25;94.50;101346.19;5093303;28;19927;-77
2023/06/21 04:29:01;;;;;;;;;;;;;;;18.26;98.48;101350.59;5093539;28;19951;-78
2023/06/21 04:31:30;;;;;;;;;;;;;;;18.29;100.00;101344.22;5110288;28;20014;-77
2023/06/21 04:33:56;;;;;;;;;;;;;;;18.29;97.27;101338.84;5111802;28;19920;-78
2023/06/21 04:36:21;;;;;;;;;;;;;;;18.30;100.00;101345.94;5111914;28;19927;-77
2023/06/21 04:38:50;;;;;;;;;;;;;;;18.31;99.68;101339.66;5110513;28;20027;-77
2023/06/21 04:41:16;;;;;;;;;;;;;;;18.33;96.52;101353.88;5113030;27;20010;-77
2023/06/21 04:43:44;;;;;;;;;;;;;;;18.37;100.00;101350.09;5110028;28;19920;-78
2023/06/21 04:46:10;;;;;;;;;;;;;;;18.43;100.00;101355.19;5093240;28;19919;-78
2023/06/21 04:48:36;;;;;;;;;;;;;;;18.42;100.00;101354.31;5111749;28;20424;-77
2023/06/21 04:51:01;;;;;;;;;;;;;;;18.43;97.61;101358.72;5109031;28;19924;-78
2023/06/21 04:53:30;;;;;;;;;;;;;;;18.47;100.00;101357.66;5111518;28;19969;-77
2023/06/21 04:55:55;;;;;;;;;;;;;;;18.49;100.00;101360.25;5111035;28;19916;-78
2023/06/21 04:58:21;;;;;;;;;;;;;;;18.52;100.00;101364.59;5111453;28;19916;-78
2023/06/21 05:00:46;;;;;;;;;;;;;;;18.55;99.64;101361.78;5109419;28;19927;-78
2023/06/21 05:03:11;;;;;;;;;;;;;;;18.59;100.00;101366.91;5092678;28;20276;-78
2023/06/21 05:05:37;;;;;;;;;;;;;;;18.61;100.00;101362.34;5109812;28;19920;-78
2023/06/21 05:08:04;;;;;;;;;;;;;;;18.64;100.00;101354.19;5109795;28;19935;-78
2023/06/21 05:10:29;;;;;;;;;;;;;;;18.66;100.00;101356.78;5109923;28;19916;-78
2023/06/21 05:12:55;;;;;;;;;;;;;;;18.67;100.00;101364.75;5109808;28;19926;-78
2023/06/21 05:15:20;;;;;;;;;;;;;;;18.72;99.01;101369.91;5111611;28;19931;-78
2023/06/21 05:17:46;;;;;;;;;;;;;;;18.77;97.24;101370.59;5110082;28;19920;-78
2023/06/21 05:20:11;;;;;;;;;;;;;;;18.81;99.40;101380.22;5109476;28;20421;-80
2023/06/21 05:22:37;;;;;;;;;;;;;;;18.83;100.00;101382.84;5111710;28;19943;-79
2023/06/21 05:25:04;;;;;;;;;;;;;;;18.86;99.21;101383.53;5110654;28;19926;-79
2023/06/21 05:27:32;;;;;;;;;;;;;;;18.89;100.00;101394.16;5090647;28;19946;-78
2023/06/21 05:29:57;;;;;;;;;;;;;;;18.91;99.28;101402.13;5115316;28;19994;-78
2023/06/21 05:32:25;;;;;;;;;;;;;;;18.97;98.99;101404.53;5093803;28;20365;-79
2023/06/21 05:34:51;;;;;;;;;;;;;;;19.02;97.24;101405.16;5112030;28;20320;-79
2023/06/21 05:37:17;;;;;;;;;;;;;;;19.07;97.10;101410.31;5114747;28;19915;-78
2023/06/21 05:39:43;;;;;;;;;;;;;;;19.04;97.92;101397.91;5109758;28;20277;-79
2023/06/21 05:42:08;;;;;;;;;;;;;;;19.07;97.78;101397.75;5109489;28;19945;-79
2023/06/21 05:44:34;;;;;;;;;;;;;;;19.17;100.00;101403.56;5092434;28;19980;-79
2023/06/21 05:46:59;;;;;;;;;;;;;;;19.25;100.00;101409.41;5126265;28;19919;-79
2023/06/21 05:49:25;;;;;;;;;;;;;;;19.32;100.00;101407.31;5109143;28;20018;-79
2023/06/21 05:51:50;;;;;;;;;;;;;;;19.41;99.44;101416.69;5099514;28;19993;-79
2023/06/21 05:54:15;;;;;;;;;;;;;;;19.46;100.00;101420.03;5097334;28;19930;-79
2023/06/21 05:56:41;;;;;;;;;;;;;;;19.51;98.31;101426.03;5093287;28;19966;-79
2023/06/21 05:59:06;;;;;;;;;;;;;;;19.60;100.00;101430.09;5096555;28;19920;-79
2023/06/21 06:01:32;;;;;;;;;;;;;;;19.66;100.00;101427.13;5094243;28;19928;-80
2023/06/21 06:03:57;;;;;;;;;;;;;;;19.73;99.93;101434.81;5095517;28;19919;-80
2023/06/21 06:06:22;;;;;;;;;;;;;;;19.79;100.00;101432.75;5097816;28;19920;-79
2023/06/21 06:08:48;;;;;;;;;;;;;;;19.80;100.00;101450.63;5112773;28;19918;-80
2023/06/21 06:11:13;;;;;;;;;;;;;;;19.74;99.51;101451.81;5100121;28;20369;-79
2023/06/21 06:13:39;;;;;;;;;;;;;;;19.71;98.26;101450.16;5107842;28;19996;-79
2023/06/21 06:16:04;;;;;;;;;;;;;;;19.67;97.43;101447.66;5080292;28;19953;-80
2023/06/21 06:18:29;;;;;;;;;;;;;;;19.61;98.35;101454.22;5092722;28;20007;-80
2023/06/21 06:20:55;;;;;;;;;;;;;;;19.62;97.39;101455.06;5099689;28;19920;-79
2023/06/21 06:23:20;;;;;;;;;;;;;;;19.63;97.66;101452.28;5111625;28;19919;-80
2023/06/21 06:25:46;;;;;;;;;;;;;;;19.68;97.09;101457.47;5105562;28;19959;-80
2023/06/21 06:28:13;;;;;;;;;;;;;;;19.70;96.55;101461.81;5108993;28;20421;-80
2023/06/21 06:30:39;;;;;;;;;;;;;;;19.72;96.40;101467.13;5101882;28;19916;-80
2023/06/21 06:33:04;;;;;;;;;;;;;;;19.80;97.14;101464.91;5098339;28;19927;-80
2023/06/21 06:35:30;;;;;;;;;;;;;;;19.83;96.16;101470.16;5091348;28;19965;-80
2023/06/21 06:37:55;;;;;;;;;;;;;;;19.91;96.59;101477.84;5090892;28;19930;-80
2023/06/21 06:40:20;;;;;;;;;;;;;;;19.94;95.38;101470.47;5108727;28;20160;-80
2023/06/21 06:42:46;;;;;;;;;;;;;;;19.98;95.51;101482.81;5109072;28;20397;-80
2023/06/21 06:45:11;;;;;;;;;;;;;;;20.00;95.30;101477.34;5091994;28;19920;-80
2023/06/21 06:47:37;;;;;;;;;;;;;;;20.05;94.78;101482.47;5108187;28;20244;-81
2023/06/21 06:50:05;;;;;;;;;;;;;;;20.10;94.27;101488.50;5103873;28;20351;-79
2023/06/21 06:52:31;;;;;;;;;;;;;;;20.13;92.14;101494.59;5106473;28;20007;-79
2023/06/21 06:54:56;;;;;;;;;;;;;;;20.13;93.18;101497.28;5099789;28;19998;-79
2023/06/21 06:57:22;;;;;;;;;;;;;;;20.18;92.42;101500.59;5110390;28;19916;-79
2023/06/21 06:59:48;;;;;;;;;;;;;;;20.25;91.03;101511.03;5111018;28;19923;-79
2023/06/21 07:02:13;;;;;;;;;;;;;;;20.28;90.36;101510.91;5112941;28;19935;-79
2023/06/21 07:04:39;;;;;;;;;;;;;;;20.32;90.42;101516.00;5107504;28;20027;-79
2023/06/21 07:07:04;;;;;;;;;;;;;;;20.38;88.86;101514.84;5111868;28;19916;-79
2023/06/21 07:09:30;;;;;;;;;;;;;;;20.45;89.03;101512.69;5111721;28;19927;-79
2023/06/21 07:11:59;;;;;;;;;;;;;;;20.47;89.85;101519.72;5108951;28;19920;-79
2023/06/21 07:14:24;;;;;;;;;;;;;;;20.54;89.99;101517.59;5102591;28;19939;-79
2023/06/21 07:16:52;;;;;;;;;;;;;;;20.66;90.48;101511.59;5100428;28;20033;-79
2023/06/21 07:19:18;;;;;;;;;;;;;;;20.79;89.19;101518.03;5109258;28;19937;-79
2023/06/21 07:21:44;;;;;;;;;;;;;;;20.92;87.79;101517.38;5109337;28;19923;-79
2023/06/21 07:24:10;;;;;;;;;;;;;;;20.99;85.74;101525.06;5100782;28;20015;-80
2023/06/21 07:26:42;;;;;;;;;;;;;;;20.92;84.05;101526.34;5123393;27;20011;-80
2023/06/21 07:29:14;;;;;;;;;;;;;;;20.81;83.72;101526.03;5095941;28;19934;-80
2023/06/21 07:31:39;;;;;;;;;;;;;;;20.77;84.47;101528.03;5109872;28;20258;-80
2023/06/21 07:34:07;;;;;;;;;;;;;;;20.63;84.06;101527.03;5110334;28;19931;-81
2023/06/21 07:36:32;;;;;;;;;;;;;;;20.55;84.73;101531.00;5109743;28;20337;-80
2023/06/21 07:38:58;;;;;;;;;;;;;;;20.66;85.33;101527.72;5108764;28;19973;-80
2023/06/21 07:41:23;;;;;;;;;;;;;;;20.79;84.59;101530.63;5094266;28;19949;-80
2023/06/21 07:43:51;;;;;;;;;;;;;;;20.91;83.26;101524.59;5091825;28;19951;-81
2023/06/21 07:46:23;;;;;;;;;;;;;;;21.03;83.67;101515.84;5106816;28;20020;-80
2023/06/21 07:48:52;;;;;;;;;;;;;;;21.15;82.88;101526.91;5093339;28;19927;-80
2023/06/21 07:51:17;;;;;;;;;;;;;;;21.24;82.91;101524.56;5100587;28;19920;-80
2023/06/21 07:53:43;;;;;;;;;;;;;;;21.39;82.87;101535.44;5106040;28;20544;-80
2023/06/21 07:56:13;;;;;;;;;;;;;;;21.49;81.38;101536.69;5105388;28;19934;-80
2023/06/21 07:58:42;;;;;;;;;;;;;;;21.59;80.19;101539.75;5109227;28;19920;-80
2023/06/21 08:01:08;;;;;;;;;;;;;;;21.67;78.30;101532.06;5108909;28;19931;-79
2023/06/21 08:03:36;;;;;;;;;;;;;;;21.76;77.58;101538.75;5103429;28;20023;-80
2023/06/21 08:06:01;;;;;;;;;;;;;;;21.79;76.15;101543.97;5109433;28;19927;-79
2023/06/21 08:08:27;;;;;;;;;;;;;;;21.85;77.13;101543.59;5090144;28;19916;-80
2023/06/21 08:10:52;;;;;;;;;;;;;;;21.93;78.44;101540.47;5095195;28;19920;-79
2023/06/21 08:13:22;;;;;;;;;;;;;;;22.04;78.57;101538.03;5094279;28;19932;-80
2023/06/21 08:15:48;;;;;;;;;;;;;;;22.14;74.75;101552.69;5117808;28;19920;-79
2023/06/21 08:18:16;;;;;;;;;;;;;;;22.24;77.49;101547.66;5111838;28;20380;-78
2023/06/21 08:20:42;;;;;;;;;;;;;;;22.34;75.40;101554.25;5109781;28;19920;-78
2023/06/21 08:23:08;;;;;;;;;;;;;;;22.38;74.44;101544.13;5109108;28;19920;-79
2023/06/21 08:25:35;;;;;;;;;;;;;;;22.34;73.26;101551.53;5109301;28;19943;-78
2023/06/21 08:28:01;;;;;;;;;;;;;;;22.39;74.81;101548.56;5105510;28;19930;-78
2023/06/21 08:30:26;;;;;;;;;;;;;;;22.46;73.35;101548.09;5105672;28;19915;-78
2023/06/21 08:32:52;;;;;;;;;;;;;;;22.50;72.12;101548.75;5108931;28;19951;-79
2023/06/21 08:35:17;;;;;;;;;;;;;;;22.43;74.18;101555.53;5110232;28;19924;-82
2023/06/21 08:37:53;;;;;;;;;;;;;;;22.45;74.80;101549.06;5090116;28;19919;-82
2023/06/21 08:40:20;;;;;;;;;;;;;;;22.61;73.70;101553.53;5096759;28;19924;-83
2023/06/21 08:42:45;;;;;;;;;;;;;;;22.73;73.20;101556.34;5105458;28;19920;-83
2023/06/21 08:45:11;;;;;;;;;;;;;;;22.87;70.68;101555.50;5109281;28;19919;-82
2023/06/21 08:47:37;;;;;;;;;;;;;;;22.92;70.85;101552.47;5110747;28;20290;-83
2023/06/21 08:50:03;;;;;;;;;;;;;;;22.95;69.31;101555.03;5108893;28;20287;-83
2023/06/21 08:52:29;;;;;;;;;;;;;;;23.07;70.50;101556.09;5087353;28;19916;-79
2023/06/21 08:55:00;;;;;;;;;;;;;;;23.16;69.14;101561.78;5105507;28;19923;-79
2023/06/21 08:57:28;;;;;;;;;;;;;;;23.33;70.32;101559.84;5108695;28;19916;-79
2023/06/21 08:59:59;;;;;;;;;;;;;;;23.51;70.10;101555.94;5106198;28;19919;-79
2023/06/21 09:02:43;;;;;;;;;;;;;;;23.61;69.00;101559.81;5101735;28;20032;-79
2023/06/21 09:05:12;;;;;;;;;;;;;;;23.72;68.48;101559.09;5101424;28;19923;-79
2023/06/21 09:07:39;;;;;;;;;;;;;;;23.93;67.68;101561.38;5111218;28;19915;-79
2023/06/21 09:10:06;;;;;;;;;;;;;;;23.96;62.15;101566.56;5111160;28;20002;-79
2023/06/21 09:12:32;;;;;;;;;;;;;;;23.97;61.20;101569.19;5102703;28;19923;-79
2023/06/21 09:14:58;;;;;;;;;;;;;;;23.98;61.40;101567.34;5102157;28;20298;-79
2023/06/21 09:17:24;;;;;;;;;;;;;;;23.97;61.63;101568.31;5106066;28;19920;-79
2023/06/21 09:19:50;;;;;;;;;;;;;;;23.93;62.12;101577.59;5105261;28;19908;-79
2023/06/21 09:22:15;;;;;;;;;;;;;;;23.89;62.78;101568.84;5107838;28;19927;-79
2023/06/21 09:24:41;;;;;;;;;;;;;;;24.00;62.95;101571.66;5100128;28;19920;-79
2023/06/21 09:27:07;;;;;;;;;;;;;;;24.18;59.16;101577.72;5098155;28;19915;-79
2023/06/21 09:29:32;;;;;;;;;;;;;;;24.18;58.38;101584.94;5102510;28;19924;-79
2023/06/21 09:31:58;;;;;;;;;;;;;;;24.23;59.40;101589.09;5090203;28;19963;-79
2023/06/21 09:34:23;;;;;;;;;;;;;;;24.32;58.64;101595.69;5109404;28;19935;-79
2023/06/21 09:36:48;;;;;;;;;;;;;;;24.48;56.91;101586.56;5109271;28;19988;-78
2023/06/21 09:39:14;;;;;;;;;;;;;;;24.54;58.37;101583.44;5113720;28;19977;-78
2023/06/21 09:41:41;;;;;;;;;;;;;;;24.51;56.74;101583.66;5113745;28;20009;-78
2023/06/21 09:44:06;;;;;;;;;;;;;;;24.57;57.14;101586.78;5113464;28;19923;-79
2023/06/21 09:46:32;;;;;;;;;;;;;;;24.69;58.02;101587.78;5115040;28;19996;-79
2023/06/21 09:49:10;;;;;;;;;;;;;;;24.82;57.11;101588.66;5113652;28;19931;-78
2023/06/21 09:51:58;;;;;;;;;;;;;;;24.84;55.29;101591.28;5101792;28;19915;-79
2023/06/21 09:54:23;;;;;;;;;;;;;;;24.89;56.29;101597.22;5114556;28;19915;-79
2023/06/21 09:56:49;;;;;;;;;;;;;;;25.00;54.80;101596.47;5113267;28;19916;-79
2023/06/21 09:59:15;;;;;;;;;;;;;;;25.05;51.97;101597.03;5114501;28;19919;-79
2023/06/21 10:01:44;;;;;;;;;;;;;;;24.99;51.84;101595.59;5113621;28;19984;-78
2023/06/21 10:04:11;;;;;;;;;;;;;;;24.96;52.71;101594.97;5115409;28;19920;-78
2023/06/21 10:06:37;;;;;;;;;;;;;;;25.03;52.06;101585.44;5112919;28;20010;-79
2023/06/21 10:09:07;;;;;;;;;;;;;;;25.18;52.22;101594.34;5114617;28;19996;-79
2023/06/21 10:11:32;;;;;;;;;;;;;;;25.37;54.02;101593.84;5114458;28;19976;-78
2023/06/21 10:13:59;;;;;;;;;;;;;;;25.51;51.67;101600.00;5112939;28;19927;-79
2023/06/21 10:16:24;;;;;;;;;;;;;;;25.63;53.47;101600.09;5113877;28;19924;-79
2023/06/21 10:18:51;;;;;;;;;;;;;;;25.71;53.07;101603.13;5114371;28;20370;-78
2023/06/21 10:21:19;;;;;;;;;;;;;;;25.84;54.15;101606.66;5112378;28;19936;-78
2023/06/21 10:23:48;;;;;;;;;;;;;;;25.98;52.48;101605.66;5113968;28;19927;-78
2023/06/21 10:26:16;;;;;;;;;;;;;;;25.81;51.93;101611.44;5113046;28;20408;-78
2023/06/21 10:28:45;;;;;;;;;;;;;;;25.56;51.65;101617.81;5112531;28;20323;-79
2023/06/21 10:31:11;;;;;;;;;;;;;;;25.61;51.49;101623.75;5113933;28;19959;-78
2023/06/21 10:33:37;;;;;;;;;;;;;;;25.77;49.75;101627.09;5129833;27;20006;-79
2023/06/21 10:36:04;;;;;;;;;;;;;;;25.89;49.22;101625.31;5113853;28;19916;-78
2023/06/21 10:38:41;;;;;;;;;;;;;;;25.88;47.97;101632.59;5113967;28;19920;-79
2023/06/21 10:41:08;;;;;;;;;;;;;;;25.88;48.28;101631.75;5113624;28;20265;-78
2023/06/21 10:43:34;;;;;;;;;;;;;;;25.86;47.66;101640.00;5095987;28;19930;-78
2023/06/21 10:46:00;;;;;;;;;;;;;;;25.84;48.86;101638.34;5095945;28;20011;-78
2023/06/21 10:48:26;;;;;;;;;;;;;;;25.84;48.35;101639.22;5114595;28;20321;-78
2023/06/21 10:50:52;;;;;;;;;;;;;;;26.02;47.83;101639.72;5114253;28;19984;-78
2023/06/21 10:53:18;;;;;;;;;;;;;;;26.13;48.81;101642.50;5114783;28;19962;-78
2023/06/21 10:55:46;;;;;;;;;;;;;;;26.22;48.17;101634.66;5095880;28;20076;-78
2023/06/21 10:58:13;;;;;;;;;;;;;;;26.34;46.46;101652.75;5114036;28;19973;-79
2023/06/21 11:00:39;;;;;;;;;;;;;;;26.41;44.95;101647.69;5112032;28;19976;-79
2023/06/21 11:03:04;;;;;;;;;;;;;;;26.34;46.29;101647.31;5113087;28;20010;-78
2023/06/21 11:05:30;;;;;;;;;;;;;;;26.44;45.56;101640.19;5112668;28;19923;-79
2023/06/21 11:07:58;;;;;;;;;;;;;;;26.58;46.37;101642.75;5113411;28;20330;-78
2023/06/21 11:10:35;;;;;;;;;;;;;;;26.69;45.62;101643.78;5113386;28;20130;-78
2023/06/21 11:13:01;;;;;;;;;;;;;;;26.64;45.00;101626.97;5113127;28;19964;-77
2023/06/21 11:15:27;;;;;;;;;;;;;;;26.65;45.40;101648.56;5113313;28;19951;-78
2023/06/21 11:17:56;;;;;;;;;;;;;;;26.67;44.49;101641.16;5113143;28;19920;-78
2023/06/21 11:20:23;;;;;;;;;;;;;;;26.69;46.66;101649.22;5111502;28;19926;-78
2023/06/21 11:23:06;;;;;;;;;;;;;;;26.88;46.34;101638.66;5125285;27;20263;-78
2023/06/21 11:25:36;;;;;;;;;;;;;;;26.95;46.15;101658.94;5111463;28;20286;-77
2023/06/21 11:28:19;;;;;;;;;;;;;;;26.63;46.78;101650.53;5113075;28;20223;-78
2023/06/21 11:31:00;;;;;;;;;;;;;;;26.51;46.28;101648.75;5099404;28;19924;-77
2023/06/21 11:33:29;;;;;;;;;;;;;;;26.26;47.02;101650.63;5091200;28;19915;-77
2023/06/21 11:36:04;;;;;;;;;;;;;;;26.02;46.79;101653.31;5108348;28;20022;-77
2023/06/21 11:38:30;;;;;;;;;;;;;;;26.23;47.08;101653.53;5107377;28;20030;-77
2023/06/21 11:46:39;;;;;;;;;;;;;;;26.45;46.54;101644.63;5517712;23;20033;-87
2023/06/21 11:49:05;;;;;;;;;;;;;;;26.42;46.93;101649.44;5554436;23;20342;-76
2023/06/21 11:51:34;;;;;;;;;;;;;;;26.45;46.27;101646.47;5352725;23;19924;-84
2023/06/21 11:54:06;;;;;;;;;;;;;;;26.41;44.85;101653.13;5722800;23;19942;31
2023/06/21 11:56:32;;;;;;;;;;;;;;;26.44;46.21;101653.78;4966583;23;20029;-76
2023/06/21 11:58:58;;;;;;;;;;;;;;;26.59;46.27;101651.75;5023659;28;20016;-76
2023/06/21 12:01:24;;;;;;;;;;;;;;;26.70;44.24;101650.94;5009304;28;20008;-77
2023/06/21 12:03:55;;;;;;;;;;;;;;;26.81;44.91;101657.28;4992810;28;20457;-77
2023/06/21 12:06:20;;;;;;;;;;;;;;;27.06;45.42;101649.91;5005604;28;19929;-77
2023/06/21 12:08:48;;;;;;;;;;;;;;;27.32;44.09;101666.03;5011502;28;19956;-77
2023/06/21 12:11:13;;;;;;;;;;;;;;;27.23;42.94;101654.06;4997440;28;20354;-76
2023/06/21 12:13:39;;;;;;;;;;;;;;;27.44;43.83;101654.16;4986569;28;19941;-77
2023/06/21 12:16:05;;;;;;;;;;;;;;;27.59;44.28;101652.06;5017647;28;19933;-76
2023/06/21 12:18:32;;;;;;;;;;;;;;;27.36;44.67;101657.50;5017887;28;19918;-76
2023/06/21 12:20:59;;;;;;;;;;;;;;;27.44;44.78;101663.19;5010293;28;19917;-76
2023/06/21 12:23:25;;;;;;;;;;;;;;;27.64;43.01;101660.72;4993201;28;19953;-76
2023/06/21 12:25:51;;;;;;;;;;;;;;;27.70;44.02;101670.25;5026873;28;19964;-76
2023/06/21 12:28:18;;;;;;;;;;;;;;;27.78;42.97;101668.63;5012670;28;19940;-77
2023/06/21 12:30:47;;;;;;;;;;;;;;;27.86;45.37;101670.75;4996397;28;20015;-76
2023/06/21 12:33:12;;;;;;;;;;;;;;;27.82;44.40;101675.59;4996908;28;19913;-76
2023/06/21 12:35:38;;;;;;;;;;;;;;;27.95;44.61;101674.59;5030570;28;19943;-76
2023/06/21 12:38:14;;;;;;;;;;;;;;;28.31;43.11;101673.34;5012906;28;20023;-76
2023/06/21 12:40:54;;;;;;;;;;;;;;;28.45;44.12;101678.56;5019786;28;20016;-76